sensor_id;sensor_type;location;lat;lon;timestamp;temperature;humidity
45066;DHT22;30830;53.704;10.004;2023-07-29T00:01:08;17.00;99.90
45066;DHT22;30830;53.704;10.004;2023-07-29T00:03:33;17.00;99.90
45066;DHT22;30830;53.704;10.004;2023-07-29T00:05:59;17.00;99.90
45066;DHT22;30830;53.704;10.004;2023-07-29T00:08:25;17.00;99.90
45066;DHT22;30830;53.704;10.004;2023-07-29T00:10:50;17.00;99.90
45066;DHT22;30830;53.704;10.004;2023-07-29T00:13:16;16.90;99.90
45066;DHT22;30830;53.704;10.004;2023-07-29T00:15:41;16.90;99.90
45066;DHT22;30830;53.704;10.004;2023-07-29T00:18:07;16.90;99.90
45066;DHT22;30830;53.704;10.004;2023-07-29T00:20:32;16.90;99.90
45066;DHT22;30830;53.704;10.004;2023-07-29T00:22:58;16.90;99.90
45066;DHT22;30830;53.704;10.004;2023-07-29T00:25:24;16.90;99.90
45066;DHT22;30830;53.704;10.004;2023-07-29T00:27:50;16.90;99.90
45066;DHT22;30830;53.704;10.004;2023-07-29T00:30:15;16.80;99.90
45066;DHT22;30830;53.704;10.004;2023-07-29T00:32:41;16.70;99.90
45066;DHT22;30830;53.704;10.004;2023-07-29T00:35:07;16.80;99.90
45066;DHT22;30830;53.704;10.004;2023-07-29T00:37:32;16.80;99.90
45066;DHT22;30830;53.704;10.004;2023-07-29T00:39:58;16.70;99.90
45066;DHT22;30830;53.704;10.004;2023-07-29T00:42:24;16.70;99.90
45066;DHT22;30830;53.704;10.004;2023-07-29T00:44:51;16.70;99.90
45066;DHT22;30830;53.704;10.004;2023-07-29T00:47:17;16.70;99.90
45066;DHT22;30830;53.704;10.004;2023-07-29T00:49:44;16.70;99.90
45066;DHT22;30830;53.704;10.004;2023-07-29T00:52:10;16.70;99.90
45066;DHT22;30830;53.704;10.004;2023-07-29T00:54:38;16.70;99.90
45066;DHT22;30830;53.704;10.004;2023-07-29T00:57:05;16.70;99.90
45066;DHT22;30830;53.704;10.004;2023-07-29T00:59:31;16.80;99.90
45066;DHT22;30830;53.704;10.004;2023-07-29T01:01:57;16.70;99.90
45066;DHT22;30830;53.704;10.004;2023-07-29T01:04:24;16.70;99.90
45066;DHT22;30830;53.704;10.004;2023-07-29T01:06:58;16.80;99.90
45066;DHT22;30830;53.704;10.004;2023-07-29T01:12:33;16.80;99.90
45066;DHT22;30830;53.704;10.004;2023-07-29T01:15:11;16.80;99.90
45066;DHT22;30830;53.704;10.004;2023-07-29T01:17:46;16.80;99.90
45066;DHT22;30830;53.704;10.004;2023-07-29T01:20:17;16.80;99.90
45066;DHT22;30830;53.704;10.004;2023-07-29T01:22:45;16.80;99.90
45066;DHT22;30830;53.704;10.004;2023-07-29T01:25:11;16.80;99.90
45066;DHT22;30830;53.704;10.004;2023-07-29T01:27:37;16.80;99.90
45066;DHT22;30830;53.704;10.004;2023-07-29T01:30:03;16.80;99.90
45066;DHT22;30830;53.704;10.004;2023-07-29T01:35:15;16.80;99.90
45066;DHT22;30830;53.704;10.004;2023-07-29T01:37:41;16.80;99.90
45066;DHT22;30830;53.704;10.004;2023-07-29T01:40:10;16.80;99.90
45066;DHT22;30830;53.704;10.004;2023-07-29T01:42:36;16.80;99.90
45066;DHT22;30830;53.704;10.004;2023-07-29T01:45:02;16.80;99.90
45066;DHT22;30830;53.704;10.004;2023-07-29T01:47:28;16.80;99.90
45066;DHT22;30830;53.704;10.004;2023-07-29T01:49:53;16.90;99.90
45066;DHT22;30830;53.704;10.004;2023-07-29T01:52:19;16.90;99.90
45066;DHT22;30830;53.704;10.004;2023-07-29T01:54:44;16.90;99.90
45066;DHT22;30830;53.704;10.004;2023-07-29T01:57:10;16.90;99.90
45066;DHT22;30830;53.704;10.004;2023-07-29T01:59:35;16.90;99.90
45066;DHT22;30830;53.704;10.004;2023-07-29T02:02:01;16.90;99.90
45066;DHT22;30830;53.704;10.004;2023-07-29T02:04:26;16.90;99.90
45066;DHT22;30830;53.704;10.004;2023-07-29T02:06:52;16.90;99.90
45066;DHT22;30830;53.704;10.004;2023-07-29T02:09:17;16.90;99.90
45066;DHT22;30830;53.704;10.004;2023-07-29T02:11:43;16.90;99.90
45066;DHT22;30830;53.704;10.004;2023-07-29T02:14:09;16.90;99.90
45066;DHT22;30830;53.704;10.004;2023-07-29T02:16:34;17.00;99.90
45066;DHT22;30830;53.704;10.004;2023-07-29T02:19:00;17.00;99.90
45066;DHT22;30830;53.704;10.004;2023-07-29T02:21:25;17.00;99.90
45066;DHT22;30830;53.704;10.004;2023-07-29T02:23:51;17.00;99.90
45066;DHT22;30830;53.704;10.004;2023-07-29T02:26:17;17.00;99.90
45066;DHT22;30830;53.704;10.004;2023-07-29T02:28:42;17.00;99.90
45066;DHT22;30830;53.704;10.004;2023-07-29T02:31:22;17.00;99.90
45066;DHT22;30830;53.704;10.004;2023-07-29T02:33:48;17.00;99.90
45066;DHT22;30830;53.704;10.004;2023-07-29T02:36:14;17.00;99.90
45066;DHT22;30830;53.704;10.004;2023-07-29T02:38:41;17.10;99.90
45066;DHT22;30830;53.704;10.004;2023-07-29T02:41:08;17.10;99.90
45066;DHT22;30830;53.704;10.004;2023-07-29T02:43:36;17.10;99.90
45066;DHT22;30830;53.704;10.004;2023-07-29T02:46:02;17.10;99.90
45066;DHT22;30830;53.704;10.004;2023-07-29T02:48:28;17.10;99.90
45066;DHT22;30830;53.704;10.004;2023-07-29T02:50:54;17.10;99.90
45066;DHT22;30830;53.704;10.004;2023-07-29T02:53:21;17.10;99.90
45066;DHT22;30830;53.704;10.004;2023-07-29T02:55:50;17.10;99.90
45066;DHT22;30830;53.704;10.004;2023-07-29T02:58:16;17.10;99.90
45066;DHT22;30830;53.704;10.004;2023-07-29T03:00:41;17.10;99.90
45066;DHT22;30830;53.704;10.004;2023-07-29T03:03:10;17.10;99.90
45066;DHT22;30830;53.704;10.004;2023-07-29T03:05:35;17.10;99.90
45066;DHT22;30830;53.704;10.004;2023-07-29T03:08:01;17.10;99.90
45066;DHT22;30830;53.704;10.004;2023-07-29T03:10:27;17.20;99.90
45066;DHT22;30830;53.704;10.004;2023-07-29T03:12:55;17.20;99.90
45066;DHT22;30830;53.704;10.004;2023-07-29T03:15:25;17.20;99.90
45066;DHT22;30830;53.704;10.004;2023-07-29T03:17:53;17.20;99.90
45066;DHT22;30830;53.704;10.004;2023-07-29T03:20:19;17.20;99.90
45066;DHT22;30830;53.704;10.004;2023-07-29T03:22:45;17.20;99.90
45066;DHT22;30830;53.704;10.004;2023-07-29T03:25:11;17.20;99.90
45066;DHT22;30830;53.704;10.004;2023-07-29T03:27:36;17.30;99.90
45066;DHT22;30830;53.704;10.004;2023-07-29T03:30:03;17.30;99.90
45066;DHT22;30830;53.704;10.004;2023-07-29T03:32:29;17.30;99.90
45066;DHT22;30830;53.704;10.004;2023-07-29T03:34:54;17.30;99.90
45066;DHT22;30830;53.704;10.004;2023-07-29T03:37:20;17.30;99.90
45066;DHT22;30830;53.704;10.004;2023-07-29T03:39:46;17.30;99.90
45066;DHT22;30830;53.704;10.004;2023-07-29T03:42:12;17.30;99.90
45066;DHT22;30830;53.704;10.004;2023-07-29T03:44:38;17.30;99.90
45066;DHT22;30830;53.704;10.004;2023-07-29T03:47:05;17.30;99.90
45066;DHT22;30830;53.704;10.004;2023-07-29T03:49:31;17.30;99.90
45066;DHT22;30830;53.704;10.004;2023-07-29T03:51:57;17.30;99.90
45066;DHT22;30830;53.704;10.004;2023-07-29T03:54:22;17.30;99.90
45066;DHT22;30830;53.704;10.004;2023-07-29T03:56:48;17.30;99.90
45066;DHT22;30830;53.704;10.004;2023-07-29T03:59:13;17.30;99.90
45066;DHT22;30830;53.704;10.004;2023-07-29T04:01:39;17.40;99.90
45066;DHT22;30830;53.704;10.004;2023-07-29T04:04:05;17.40;99.90
45066;DHT22;30830;53.704;10.004;2023-07-29T04:06:30;17.40;99.90
45066;DHT22;30830;53.704;10.004;2023-07-29T04:08:56;17.40;99.90
45066;DHT22;30830;53.704;10.004;2023-07-29T04:11:23;17.50;99.90
45066;DHT22;30830;53.704;10.004;2023-07-29T04:13:48;17.50;99.90
45066;DHT22;30830;53.704;10.004;2023-07-29T04:16:14;17.50;99.90
45066;DHT22;30830;53.704;10.004;2023-07-29T04:18:40;17.60;99.90
45066;DHT22;30830;53.704;10.004;2023-07-29T04:21:06;17.50;99.90
45066;DHT22;30830;53.704;10.004;2023-07-29T04:23:31;17.60;99.90
45066;DHT22;30830;53.704;10.004;2023-07-29T04:25:57;17.60;99.90
45066;DHT22;30830;53.704;10.004;2023-07-29T04:28:22;17.60;99.90
45066;DHT22;30830;53.704;10.004;2023-07-29T04:30:48;17.70;99.90
45066;DHT22;30830;53.704;10.004;2023-07-29T04:33:13;17.70;99.90
45066;DHT22;30830;53.704;10.004;2023-07-29T04:35:39;17.70;99.90
45066;DHT22;30830;53.704;10.004;2023-07-29T04:38:04;17.80;99.90
45066;DHT22;30830;53.704;10.004;2023-07-29T04:40:33;17.80;99.90
45066;DHT22;30830;53.704;10.004;2023-07-29T04:43:00;17.80;99.90
45066;DHT22;30830;53.704;10.004;2023-07-29T04:45:30;17.80;99.90
45066;DHT22;30830;53.704;10.004;2023-07-29T04:47:56;17.90;99.90
45066;DHT22;30830;53.704;10.004;2023-07-29T04:50:21;17.90;99.90
45066;DHT22;30830;53.704;10.004;2023-07-29T04:52:47;17.90;99.90
45066;DHT22;30830;53.704;10.004;2023-07-29T04:55:12;17.90;99.90
45066;DHT22;30830;53.704;10.004;2023-07-29T04:57:38;18.00;99.90
45066;DHT22;30830;53.704;10.004;2023-07-29T05:00:04;18.00;99.90
45066;DHT22;30830;53.704;10.004;2023-07-29T05:02:29;18.00;99.90
45066;DHT22;30830;53.704;10.004;2023-07-29T05:04:55;18.00;99.90
45066;DHT22;30830;53.704;10.004;2023-07-29T05:07:21;18.00;99.90
45066;DHT22;30830;53.704;10.004;2023-07-29T05:09:47;18.00;99.90
45066;DHT22;30830;53.704;10.004;2023-07-29T05:12:13;18.10;99.90
45066;DHT22;30830;53.704;10.004;2023-07-29T05:14:38;18.10;99.90
45066;DHT22;30830;53.704;10.004;2023-07-29T05:17:04;18.10;99.90
45066;DHT22;30830;53.704;10.004;2023-07-29T05:19:30;18.10;99.90
45066;DHT22;30830;53.704;10.004;2023-07-29T05:21:56;18.10;99.90
45066;DHT22;30830;53.704;10.004;2023-07-29T05:24:23;18.10;99.90
45066;DHT22;30830;53.704;10.004;2023-07-29T05:26:49;18.10;99.90
45066;DHT22;30830;53.704;10.004;2023-07-29T05:29:15;18.20;99.90
45066;DHT22;30830;53.704;10.004;2023-07-29T05:31:41;18.20;99.90
45066;DHT22;30830;53.704;10.004;2023-07-29T05:34:06;18.30;99.90
45066;DHT22;30830;53.704;10.004;2023-07-29T05:36:32;18.30;99.90
45066;DHT22;30830;53.704;10.004;2023-07-29T05:38:58;18.30;99.90
45066;DHT22;30830;53.704;10.004;2023-07-29T05:41:23;18.30;99.90
45066;DHT22;30830;53.704;10.004;2023-07-29T05:43:49;18.40;99.90
45066;DHT22;30830;53.704;10.004;2023-07-29T05:46:14;18.40;99.90
45066;DHT22;30830;53.704;10.004;2023-07-29T05:48:40;18.40;99.90
45066;DHT22;30830;53.704;10.004;2023-07-29T05:51:07;18.50;99.90
45066;DHT22;30830;53.704;10.004;2023-07-29T05:53:33;18.50;99.90
45066;DHT22;30830;53.704;10.004;2023-07-29T05:55:58;18.60;99.90
45066;DHT22;30830;53.704;10.004;2023-07-29T05:58:24;18.60;99.90
45066;DHT22;30830;53.704;10.004;2023-07-29T06:00:49;18.70;99.90
45066;DHT22;30830;53.704;10.004;2023-07-29T06:03:15;18.70;99.90
45066;DHT22;30830;53.704;10.004;2023-07-29T06:05:40;18.80;99.90
45066;DHT22;30830;53.704;10.004;2023-07-29T06:08:06;18.80;99.90
45066;DHT22;30830;53.704;10.004;2023-07-29T06:10:33;18.80;99.90
45066;DHT22;30830;53.704;10.004;2023-07-29T06:12:59;18.80;99.90
45066;DHT22;30830;53.704;10.004;2023-07-29T06:15:25;18.80;99.90
45066;DHT22;30830;53.704;10.004;2023-07-29T06:17:50;18.80;99.90
45066;DHT22;30830;53.704;10.004;2023-07-29T06:20:16;18.80;99.90
45066;DHT22;30830;53.704;10.004;2023-07-29T06:22:41;18.80;99.90
45066;DHT22;30830;53.704;10.004;2023-07-29T06:25:08;18.80;99.90
45066;DHT22;30830;53.704;10.004;2023-07-29T06:27:34;18.80;99.90
45066;DHT22;30830;53.704;10.004;2023-07-29T06:29:59;18.80;99.90
45066;DHT22;30830;53.704;10.004;2023-07-29T06:32:25;18.90;99.90
45066;DHT22;30830;53.704;10.004;2023-07-29T06:34:51;18.90;99.90
45066;DHT22;30830;53.704;10.004;2023-07-29T06:37:17;19.00;99.90
45066;DHT22;30830;53.704;10.004;2023-07-29T06:39:43;19.00;99.90
45066;DHT22;30830;53.704;10.004;2023-07-29T06:42:08;19.00;99.90
45066;DHT22;30830;53.704;10.004;2023-07-29T06:44:34;19.10;99.90
45066;DHT22;30830;53.704;10.004;2023-07-29T06:46:59;19.10;99.90
45066;DHT22;30830;53.704;10.004;2023-07-29T06:49:25;19.10;99.90
45066;DHT22;30830;53.704;10.004;2023-07-29T06:51:50;19.20;99.90
45066;DHT22;30830;53.704;10.004;2023-07-29T06:54:16;19.20;99.90
45066;DHT22;30830;53.704;10.004;2023-07-29T06:56:42;19.30;99.90
45066;DHT22;30830;53.704;10.004;2023-07-29T06:59:08;19.30;99.90
45066;DHT22;30830;53.704;10.004;2023-07-29T07:01:34;19.30;99.90
45066;DHT22;30830;53.704;10.004;2023-07-29T07:04:00;19.30;99.90
45066;DHT22;30830;53.704;10.004;2023-07-29T07:06:25;19.40;99.90
45066;DHT22;30830;53.704;10.004;2023-07-29T07:08:51;19.50;99.90
45066;DHT22;30830;53.704;10.004;2023-07-29T07:11:18;19.60;99.90
45066;DHT22;30830;53.704;10.004;2023-07-29T07:13:44;19.60;99.90
45066;DHT22;30830;53.704;10.004;2023-07-29T07:16:09;19.60;99.90
45066;DHT22;30830;53.704;10.004;2023-07-29T07:18:35;19.60;99.90
45066;DHT22;30830;53.704;10.004;2023-07-29T07:21:00;19.60;99.90
45066;DHT22;30830;53.704;10.004;2023-07-29T07:23:26;19.60;99.90
45066;DHT22;30830;53.704;10.004;2023-07-29T07:25:52;19.50;99.90
45066;DHT22;30830;53.704;10.004;2023-07-29T07:28:17;19.50;99.90
45066;DHT22;30830;53.704;10.004;2023-07-29T07:30:43;19.50;99.90
45066;DHT22;30830;53.704;10.004;2023-07-29T07:33:08;19.50;99.90
45066;DHT22;30830;53.704;10.004;2023-07-29T07:35:34;19.50;99.90
45066;DHT22;30830;53.704;10.004;2023-07-29T07:37:59;19.60;99.90
45066;DHT22;30830;53.704;10.004;2023-07-29T07:40:27;19.60;99.90
45066;DHT22;30830;53.704;10.004;2023-07-29T07:42:53;19.60;99.90
45066;DHT22;30830;53.704;10.004;2023-07-29T07:45:19;19.60;99.90
45066;DHT22;30830;53.704;10.004;2023-07-29T07:47:45;19.60;99.90
45066;DHT22;30830;53.704;10.004;2023-07-29T07:50:10;19.60;99.90
45066;DHT22;30830;53.704;10.004;2023-07-29T07:52:36;19.60;99.90
45066;DHT22;30830;53.704;10.004;2023-07-29T07:55:01;19.60;99.90
45066;DHT22;30830;53.704;10.004;2023-07-29T07:57:27;19.70;99.90
45066;DHT22;30830;53.704;10.004;2023-07-29T07:59:52;19.70;99.90
45066;DHT22;30830;53.704;10.004;2023-07-29T08:02:18;19.80;99.90
45066;DHT22;30830;53.704;10.004;2023-07-29T08:04:44;19.70;99.90
45066;DHT22;30830;53.704;10.004;2023-07-29T08:07:10;19.80;99.90
45066;DHT22;30830;53.704;10.004;2023-07-29T08:09:35;19.70;99.90
45066;DHT22;30830;53.704;10.004;2023-07-29T08:12:01;19.70;99.90
45066;DHT22;30830;53.704;10.004;2023-07-29T08:14:26;19.80;99.90
45066;DHT22;30830;53.704;10.004;2023-07-29T08:16:52;19.80;99.90
45066;DHT22;30830;53.704;10.004;2023-07-29T08:19:18;19.80;99.90
45066;DHT22;30830;53.704;10.004;2023-07-29T08:21:43;19.80;99.90
45066;DHT22;30830;53.704;10.004;2023-07-29T08:24:09;19.80;99.90
45066;DHT22;30830;53.704;10.004;2023-07-29T08:26:34;19.80;99.90
45066;DHT22;30830;53.704;10.004;2023-07-29T08:29:00;19.90;99.90
45066;DHT22;30830;53.704;10.004;2023-07-29T08:31:25;20.00;99.90
45066;DHT22;30830;53.704;10.004;2023-07-29T08:33:51;20.00;99.90
45066;DHT22;30830;53.704;10.004;2023-07-29T08:36:16;19.90;99.90
45066;DHT22;30830;53.704;10.004;2023-07-29T08:38:42;19.90;99.90
45066;DHT22;30830;53.704;10.004;2023-07-29T08:41:14;19.90;99.90
45066;DHT22;30830;53.704;10.004;2023-07-29T08:46:28;19.80;99.90
45066;DHT22;30830;53.704;10.004;2023-07-29T08:48:55;19.90;99.90
45066;DHT22;30830;53.704;10.004;2023-07-29T08:51:21;19.80;99.90
45066;DHT22;30830;53.704;10.004;2023-07-29T08:53:51;19.80;99.90
45066;DHT22;30830;53.704;10.004;2023-07-29T08:56:17;19.80;99.90
45066;DHT22;30830;53.704;10.004;2023-07-29T08:58:43;19.80;99.90
45066;DHT22;30830;53.704;10.004;2023-07-29T09:01:09;19.80;99.90
45066;DHT22;30830;53.704;10.004;2023-07-29T09:03:34;19.90;99.90
45066;DHT22;30830;53.704;10.004;2023-07-29T09:06:02;19.90;99.90
45066;DHT22;30830;53.704;10.004;2023-07-29T09:08:28;20.00;99.90
45066;DHT22;30830;53.704;10.004;2023-07-29T09:10:55;20.00;99.90
45066;DHT22;30830;53.704;10.004;2023-07-29T09:13:21;20.10;99.90
45066;DHT22;30830;53.704;10.004;2023-07-29T09:15:47;20.10;99.90
45066;DHT22;30830;53.704;10.004;2023-07-29T09:18:16;20.20;99.90
45066;DHT22;30830;53.704;10.004;2023-07-29T09:20:42;20.30;99.90
45066;DHT22;30830;53.704;10.004;2023-07-29T09:23:09;20.40;99.90
45066;DHT22;30830;53.704;10.004;2023-07-29T09:25:35;20.40;99.90
45066;DHT22;30830;53.704;10.004;2023-07-29T09:28:10;20.50;99.90
45066;DHT22;30830;53.704;10.004;2023-07-29T09:30:38;20.50;99.90
45066;DHT22;30830;53.704;10.004;2023-07-29T09:33:08;20.50;99.90
45066;DHT22;30830;53.704;10.004;2023-07-29T09:35:35;20.60;99.90
45066;DHT22;30830;53.704;10.004;2023-07-29T09:38:05;20.60;99.90
45066;DHT22;30830;53.704;10.004;2023-07-29T09:40:36;20.70;99.90
45066;DHT22;30830;53.704;10.004;2023-07-29T09:43:05;20.70;99.90
45066;DHT22;30830;53.704;10.004;2023-07-29T09:45:33;20.90;99.90
45066;DHT22;30830;53.704;10.004;2023-07-29T09:47:59;21.00;99.90
45066;DHT22;30830;53.704;10.004;2023-07-29T09:50:26;21.00;99.90
45066;DHT22;30830;53.704;10.004;2023-07-29T09:52:55;21.20;99.90
45066;DHT22;30830;53.704;10.004;2023-07-29T09:55:24;21.40;99.90
45066;DHT22;30830;53.704;10.004;2023-07-29T09:57:57;21.70;99.90
45066;DHT22;30830;53.704;10.004;2023-07-29T10:00:25;21.90;99.90
45066;DHT22;30830;53.704;10.004;2023-07-29T10:02:51;22.00;99.90
45066;DHT22;30830;53.704;10.004;2023-07-29T10:05:18;22.20;99.90
45066;DHT22;30830;53.704;10.004;2023-07-29T10:07:44;22.30;99.90
45066;DHT22;30830;53.704;10.004;2023-07-29T10:10:14;22.30;99.90
45066;DHT22;30830;53.704;10.004;2023-07-29T10:12:40;22.40;99.90
45066;DHT22;30830;53.704;10.004;2023-07-29T10:15:08;22.40;99.90
45066;DHT22;30830;53.704;10.004;2023-07-29T10:17:36;22.40;99.90
45066;DHT22;30830;53.704;10.004;2023-07-29T10:20:08;22.50;99.90
45066;DHT22;30830;53.704;10.004;2023-07-29T10:22:39;22.50;99.90
45066;DHT22;30830;53.704;10.004;2023-07-29T10:25:27;22.60;99.90
45066;DHT22;30830;53.704;10.004;2023-07-29T10:28:05;22.70;99.90
45066;DHT22;30830;53.704;10.004;2023-07-29T10:30:31;22.80;99.90
45066;DHT22;30830;53.704;10.004;2023-07-29T10:33:04;22.90;99.90
45066;DHT22;30830;53.704;10.004;2023-07-29T10:35:32;22.90;99.90
45066;DHT22;30830;53.704;10.004;2023-07-29T10:37:59;22.90;99.90
45066;DHT22;30830;53.704;10.004;2023-07-29T10:40:25;23.00;99.90
45066;DHT22;30830;53.704;10.004;2023-07-29T10:43:11;23.00;99.90
45066;DHT22;30830;53.704;10.004;2023-07-29T10:45:38;22.90;99.90
45066;DHT22;30830;53.704;10.004;2023-07-29T10:48:10;22.80;99.90
45066;DHT22;30830;53.704;10.004;2023-07-29T10:50:36;22.80;99.90
45066;DHT22;30830;53.704;10.004;2023-07-29T10:53:01;22.70;99.90
45066;DHT22;30830;53.704;10.004;2023-07-29T10:55:29;22.70;99.90
45066;DHT22;30830;53.704;10.004;2023-07-29T10:58:09;22.50;99.90
45066;DHT22;30830;53.704;10.004;2023-07-29T11:00:36;22.40;99.90
45066;DHT22;30830;53.704;10.004;2023-07-29T11:03:06;22.30;99.90
45066;DHT22;30830;53.704;10.004;2023-07-29T11:05:52;22.30;99.90
45066;DHT22;30830;53.704;10.004;2023-07-29T11:08:27;22.20;99.90
45066;DHT22;30830;53.704;10.004;2023-07-29T11:13:29;22.10;99.90
45066;DHT22;30830;53.704;10.004;2023-07-29T11:15:55;22.10;99.90
45066;DHT22;30830;53.704;10.004;2023-07-29T11:18:21;22.10;99.90
45066;DHT22;30830;53.704;10.004;2023-07-29T11:20:47;22.10;99.90
45066;DHT22;30830;53.704;10.004;2023-07-29T11:23:16;22.10;99.90
45066;DHT22;30830;53.704;10.004;2023-07-29T11:25:42;22.20;99.90
45066;DHT22;30830;53.704;10.004;2023-07-29T11:28:08;22.30;99.90
45066;DHT22;30830;53.704;10.004;2023-07-29T11:30:33;22.40;99.90
45066;DHT22;30830;53.704;10.004;2023-07-29T11:32:59;22.50;99.90
45066;DHT22;30830;53.704;10.004;2023-07-29T11:35:25;22.60;99.90
45066;DHT22;30830;53.704;10.004;2023-07-29T11:37:53;22.70;99.90
45066;DHT22;30830;53.704;10.004;2023-07-29T11:40:20;22.80;99.90
45066;DHT22;30830;53.704;10.004;2023-07-29T11:42:47;22.80;99.90
45066;DHT22;30830;53.704;10.004;2023-07-29T11:45:14;22.90;99.90
45066;DHT22;30830;53.704;10.004;2023-07-29T11:47:39;22.90;99.90
45066;DHT22;30830;53.704;10.004;2023-07-29T11:50:07;22.90;99.90
45066;DHT22;30830;53.704;10.004;2023-07-29T11:52:38;23.00;99.90
45066;DHT22;30830;53.704;10.004;2023-07-29T11:55:05;23.10;99.90
45066;DHT22;30830;53.704;10.004;2023-07-29T11:57:34;23.00;99.90
45066;DHT22;30830;53.704;10.004;2023-07-29T12:00:06;22.90;99.90
45066;DHT22;30830;53.704;10.004;2023-07-29T12:02:34;22.90;99.90
45066;DHT22;30830;53.704;10.004;2023-07-29T12:05:03;22.90;99.90
45066;DHT22;30830;53.704;10.004;2023-07-29T12:07:29;23.00;99.90
45066;DHT22;30830;53.704;10.004;2023-07-29T12:09:55;23.00;99.90
45066;DHT22;30830;53.704;10.004;2023-07-29T12:12:22;23.00;99.90
45066;DHT22;30830;53.704;10.004;2023-07-29T12:14:49;23.00;99.90
45066;DHT22;30830;53.704;10.004;2023-07-29T12:17:15;23.00;99.90
45066;DHT22;30830;53.704;10.004;2023-07-29T12:19:42;23.10;99.90
45066;DHT22;30830;53.704;10.004;2023-07-29T12:22:09;23.20;99.90
45066;DHT22;30830;53.704;10.004;2023-07-29T12:24:39;23.30;99.90
45066;DHT22;30830;53.704;10.004;2023-07-29T12:27:09;23.30;99.90
45066;DHT22;30830;53.704;10.004;2023-07-29T12:29:43;23.30;99.90
45066;DHT22;30830;53.704;10.004;2023-07-29T12:32:09;23.40;99.90
45066;DHT22;30830;53.704;10.004;2023-07-29T12:34:38;23.40;99.90
45066;DHT22;30830;53.704;10.004;2023-07-29T12:37:05;23.50;99.90
45066;DHT22;30830;53.704;10.004;2023-07-29T12:39:33;23.50;99.90
45066;DHT22;30830;53.704;10.004;2023-07-29T12:42:00;23.40;99.90
45066;DHT22;30830;53.704;10.004;2023-07-29T12:44:31;23.30;99.90
45066;DHT22;30830;53.704;10.004;2023-07-29T12:46:57;23.30;99.90
45066;DHT22;30830;53.704;10.004;2023-07-29T12:49:23;23.20;99.90
45066;DHT22;30830;53.704;10.004;2023-07-29T12:51:48;23.20;99.90
45066;DHT22;30830;53.704;10.004;2023-07-29T12:54:14;23.00;99.90
45066;DHT22;30830;53.704;10.004;2023-07-29T12:56:39;22.90;99.90
45066;DHT22;30830;53.704;10.004;2023-07-29T12:59:05;22.80;99.90
45066;DHT22;30830;53.704;10.004;2023-07-29T13:01:31;22.80;99.90
45066;DHT22;30830;53.704;10.004;2023-07-29T13:03:56;22.80;99.90
45066;DHT22;30830;53.704;10.004;2023-07-29T13:06:22;23.00;99.90
45066;DHT22;30830;53.704;10.004;2023-07-29T13:08:48;23.10;99.90
45066;DHT22;30830;53.704;10.004;2023-07-29T13:11:15;23.20;99.90
45066;DHT22;30830;53.704;10.004;2023-07-29T13:13:41;23.30;99.90
45066;DHT22;30830;53.704;10.004;2023-07-29T13:16:06;23.40;99.90
45066;DHT22;30830;53.704;10.004;2023-07-29T13:18:32;23.50;99.90
45066;DHT22;30830;53.704;10.004;2023-07-29T13:20:58;23.60;99.90
45066;DHT22;30830;53.704;10.004;2023-07-29T13:23:25;23.60;99.90
45066;DHT22;30830;53.704;10.004;2023-07-29T13:25:51;23.60;99.90
45066;DHT22;30830;53.704;10.004;2023-07-29T13:28:16;23.70;99.90
45066;DHT22;30830;53.704;10.004;2023-07-29T13:30:42;23.70;99.90
45066;DHT22;30830;53.704;10.004;2023-07-29T13:33:08;23.70;99.90
45066;DHT22;30830;53.704;10.004;2023-07-29T13:35:34;23.70;99.90
45066;DHT22;30830;53.704;10.004;2023-07-29T13:38:03;23.60;99.90
45066;DHT22;30830;53.704;10.004;2023-07-29T13:40:28;23.60;99.90
45066;DHT22;30830;53.704;10.004;2023-07-29T13:42:54;23.70;99.90
45066;DHT22;30830;53.704;10.004;2023-07-29T13:45:20;23.90;99.90
45066;DHT22;30830;53.704;10.004;2023-07-29T13:47:46;24.00;99.90
45066;DHT22;30830;53.704;10.004;2023-07-29T13:50:11;24.00;99.90
45066;DHT22;30830;53.704;10.004;2023-07-29T13:52:37;24.00;99.90
45066;DHT22;30830;53.704;10.004;2023-07-29T13:55:04;24.00;99.90
45066;DHT22;30830;53.704;10.004;2023-07-29T13:57:31;24.00;99.90
45066;DHT22;30830;53.704;10.004;2023-07-29T13:59:57;24.10;99.90
45066;DHT22;30830;53.704;10.004;2023-07-29T14:02:22;24.10;99.90
45066;DHT22;30830;53.704;10.004;2023-07-29T14:04:48;24.10;99.90
45066;DHT22;30830;53.704;10.004;2023-07-29T14:07:13;24.20;99.90
45066;DHT22;30830;53.704;10.004;2023-07-29T14:09:39;24.30;99.90
45066;DHT22;30830;53.704;10.004;2023-07-29T14:12:06;24.30;99.90
45066;DHT22;30830;53.704;10.004;2023-07-29T14:14:31;24.20;99.90
45066;DHT22;30830;53.704;10.004;2023-07-29T14:16:57;24.10;99.90
45066;DHT22;30830;53.704;10.004;2023-07-29T14:19:23;24.10;99.90
45066;DHT22;30830;53.704;10.004;2023-07-29T14:21:50;24.10;99.90
45066;DHT22;30830;53.704;10.004;2023-07-29T14:24:16;24.10;99.90
45066;DHT22;30830;53.704;10.004;2023-07-29T14:26:42;24.10;99.90
45066;DHT22;30830;53.704;10.004;2023-07-29T14:29:07;24.20;99.90
45066;DHT22;30830;53.704;10.004;2023-07-29T14:31:33;24.20;99.90
45066;DHT22;30830;53.704;10.004;2023-07-29T14:33:59;24.30;99.90
45066;DHT22;30830;53.704;10.004;2023-07-29T14:36:25;24.20;99.90
45066;DHT22;30830;53.704;10.004;2023-07-29T14:38:51;24.10;99.90
45066;DHT22;30830;53.704;10.004;2023-07-29T14:41:17;24.10;99.90
45066;DHT22;30830;53.704;10.004;2023-07-29T14:43:42;23.90;99.90
45066;DHT22;30830;53.704;10.004;2023-07-29T14:46:08;23.90;99.90
45066;DHT22;30830;53.704;10.004;2023-07-29T14:48:33;23.80;99.90
45066;DHT22;30830;53.704;10.004;2023-07-29T14:50:59;23.80;99.90
45066;DHT22;30830;53.704;10.004;2023-07-29T14:53:24;23.80;99.90
45066;DHT22;30830;53.704;10.004;2023-07-29T14:55:50;23.90;99.90
45066;DHT22;30830;53.704;10.004;2023-07-29T14:58:16;23.90;99.90
45066;DHT22;30830;53.704;10.004;2023-07-29T15:00:42;23.90;99.90
45066;DHT22;30830;53.704;10.004;2023-07-29T15:03:08;23.90;99.90
45066;DHT22;30830;53.704;10.004;2023-07-29T15:05:34;24.00;99.90
45066;DHT22;30830;53.704;10.004;2023-07-29T15:07:59;24.00;99.90
45066;DHT22;30830;53.704;10.004;2023-07-29T15:10:25;24.00;99.90
45066;DHT22;30830;53.704;10.004;2023-07-29T15:12:51;24.00;99.90
45066;DHT22;30830;53.704;10.004;2023-07-29T15:15:16;23.90;99.90
45066;DHT22;30830;53.704;10.004;2023-07-29T15:17:43;23.80;99.90
45066;DHT22;30830;53.704;10.004;2023-07-29T15:20:09;23.70;99.90
45066;DHT22;30830;53.704;10.004;2023-07-29T15:22:35;23.80;99.90